Macomb, Oklahoma
Current Conditions -  °F | °C
As of 10:35 AM on Friday 28 Nov 2014 (Local Time) from KSNL Reporting Station
Clear Clear  
Wind Chill: 59°   Ceiling: Unl
Heat Index: 59°   Visibility: 10mi
Dew Point: 41°   Wind: 15mph
Humidity: 51%   Direction: 200°SSW
Pressure: 30.1"   Gusts: 18mph
Location:  35.15°N, 97.01°W
Report Text: KSNL 281635Z AUTO 20013G16KT 10SM CLR 15/05 A3010 RMK AO2
Loading
Personal Weather Stations






























Interactive Weather Map New forecast layout! Learn more

10-Day Weather Forecast

Advertisements
Track Severe Weather on mobile